Terminal Aerodrome Forecast
Issued by NWS

Home | Current Version | Previous Version | Text Only | Print | Product List | Glossary Off
Versions: 1 2 3 4 5 6 7 8 9 10 11 12 13 14 15 16 17

000
FTUS41 KCLE 181239 AAA
TAFFDY
TAF AMD
KFDY 181239Z 1813/1912 24010KT P6SM SCT050
     FM181700 26015G25KT P6SM BKN050
     FM182200 26010KT P6SM SCT200
     FM190700 23006KT P6SM SCT100 OVC200
     FM191000 23006KT 5SM -SHRA OVC030=

USA.gov is the U.S. government's official web portal to all federal, state and local government web resources and services.